sensor_id;sensor_type;location;lat;lon;timestamp;pressure;altitude;pressure_sealevel;temperature;humidity
41632;BME280;37452;51.938;4.624;2023-04-06T00:00:48;78222.19;;;-142.75;100.00
41632;BME280;37452;51.938;4.624;2023-04-06T00:03:14;78216.28;;;-142.75;100.00
41632;BME280;37452;51.938;4.624;2023-04-06T00:05:39;78224.16;;;-142.75;100.00
41632;BME280;37452;51.938;4.624;2023-04-06T00:08:05;78216.28;;;-142.75;100.00
41632;BME280;37452;51.938;4.624;2023-04-06T00:10:30;78212.34;;;-142.75;100.00
41632;BME280;37452;51.938;4.624;2023-04-06T00:12:57;78208.41;;;-142.75;100.00
41632;BME280;37452;51.938;4.624;2023-04-06T00:15:23;78206.44;;;-142.75;100.00
41632;BME280;37452;51.938;4.624;2023-04-06T00:17:48;78202.50;;;-142.75;100.00
41632;BME280;37452;51.938;4.624;2023-04-06T00:20:14;78202.50;;;-142.75;100.00
41632;BME280;37452;51.938;4.624;2023-04-06T00:22:40;78208.41;;;-142.75;100.00
41632;BME280;37452;51.938;4.624;2023-04-06T00:25:05;78210.38;;;-142.75;100.00
41632;BME280;37452;51.938;4.624;2023-04-06T00:27:31;78220.22;;;-142.75;100.00
41632;BME280;37452;51.938;4.624;2023-04-06T00:29:56;78200.53;;;-142.75;100.00
41632;BME280;37452;51.938;4.624;2023-04-06T00:32:21;78214.31;;;-142.75;100.00
41632;BME280;37452;51.938;4.624;2023-04-06T00:34:47;78220.22;;;-142.75;100.00
41632;BME280;37452;51.938;4.624;2023-04-06T00:37:12;78232.03;;;-142.75;100.00
41632;BME280;37452;51.938;4.624;2023-04-06T00:39:37;78214.31;;;-142.75;100.00
41632;BME280;37452;51.938;4.624;2023-04-06T00:42:09;78204.47;;;-142.75;100.00
41632;BME280;37452;51.938;4.624;2023-04-06T00:44:35;78206.44;;;-142.75;100.00
41632;BME280;37452;51.938;4.624;2023-04-06T00:47:01;78202.50;;;-142.75;100.00
41632;BME280;37452;51.938;4.624;2023-04-06T00:49:26;78200.53;;;-142.75;100.00
41632;BME280;37452;51.938;4.624;2023-04-06T00:51:52;78190.69;;;-142.75;100.00
41632;BME280;37452;51.938;4.624;2023-04-06T00:54:18;78210.38;;;-142.75;100.00
41632;BME280;37452;51.938;4.624;2023-04-06T00:56:43;78204.47;;;-142.75;100.00
41632;BME280;37452;51.938;4.624;2023-04-06T00:59:08;78182.81;;;-142.75;100.00
41632;BME280;37452;51.938;4.624;2023-04-06T01:01:34;78188.72;;;-142.75;100.00
41632;BME280;37452;51.938;4.624;2023-04-06T01:03:59;78192.66;;;-142.75;100.00
41632;BME280;37452;51.938;4.624;2023-04-06T01:06:25;78196.59;;;-142.75;100.00
41632;BME280;37452;51.938;4.624;2023-04-06T01:08:50;78198.56;;;-142.75;100.00
41632;BME280;37452;51.938;4.624;2023-04-06T01:11:17;78188.72;;;-142.75;100.00
41632;BME280;37452;51.938;4.624;2023-04-06T01:13:42;78188.72;;;-142.75;100.00
41632;BME280;37452;51.938;4.624;2023-04-06T01:16:08;78192.66;;;-142.75;100.00
41632;BME280;37452;51.938;4.624;2023-04-06T01:18:34;78202.50;;;-142.75;100.00
41632;BME280;37452;51.938;4.624;2023-04-06T01:21:00;78202.50;;;-142.75;100.00
41632;BME280;37452;51.938;4.624;2023-04-06T01:23:26;78208.41;;;-142.75;100.00
41632;BME280;37452;51.938;4.624;2023-04-06T01:25:51;78204.47;;;-142.75;100.00
41632;BME280;37452;51.938;4.624;2023-04-06T01:28:17;78196.59;;;-142.75;100.00
41632;BME280;37452;51.938;4.624;2023-04-06T01:30:42;78200.53;;;-142.75;100.00
41632;BME280;37452;51.938;4.624;2023-04-06T01:33:07;78194.63;;;-142.75;100.00
41632;BME280;37452;51.938;4.624;2023-04-06T01:35:32;78196.59;;;-142.75;100.00
41632;BME280;37452;51.938;4.624;2023-04-06T01:37:58;78186.75;;;-142.75;100.00
41632;BME280;37452;51.938;4.624;2023-04-06T01:40:23;78186.75;;;-142.75;100.00
41632;BME280;37452;51.938;4.624;2023-04-06T01:42:48;78192.66;;;-142.75;100.00
41632;BME280;37452;51.938;4.624;2023-04-06T01:45:14;78188.72;;;-142.75;100.00
41632;BME280;37452;51.938;4.624;2023-04-06T01:47:39;78192.66;;;-142.75;100.00
41632;BME280;37452;51.938;4.624;2023-04-06T01:50:05;78188.72;;;-142.75;100.00
41632;BME280;37452;51.938;4.624;2023-04-06T01:52:33;78176.88;;;-142.75;100.00
41632;BME280;37452;51.938;4.624;2023-04-06T01:54:58;78176.88;;;-142.75;100.00
41632;BME280;37452;51.938;4.624;2023-04-06T01:57:23;78172.94;;;-142.75;100.00
41632;BME280;37452;51.938;4.624;2023-04-06T01:59:50;78178.84;;;-142.75;100.00
41632;BME280;37452;51.938;4.624;2023-04-06T02:02:15;78176.88;;;-142.75;100.00
41632;BME280;37452;51.938;4.624;2023-04-06T02:04:41;78167.03;;;-142.75;100.00
41632;BME280;37452;51.938;4.624;2023-04-06T02:07:06;78165.06;;;-142.75;100.00
41632;BME280;37452;51.938;4.624;2023-04-06T02:09:31;78155.22;;;-142.75;100.00
41632;BME280;37452;51.938;4.624;2023-04-06T02:11:56;78180.81;;;-142.75;100.00
41632;BME280;37452;51.938;4.624;2023-04-06T02:14:25;78161.13;;;-142.75;100.00
41632;BME280;37452;51.938;4.624;2023-04-06T02:16:51;78159.16;;;-142.75;100.00
41632;BME280;37452;51.938;4.624;2023-04-06T02:19:16;78157.19;;;-142.75;100.00
41632;BME280;37452;51.938;4.624;2023-04-06T02:21:42;78167.03;;;-142.75;100.00
41632;BME280;37452;51.938;4.624;2023-04-06T02:24:07;78167.03;;;-142.75;100.00
41632;BME280;37452;51.938;4.624;2023-04-06T02:26:32;78155.22;;;-142.75;100.00
41632;BME280;37452;51.938;4.624;2023-04-06T02:28:58;78149.31;;;-142.75;100.00
41632;BME280;37452;51.938;4.624;2023-04-06T02:31:23;78147.34;;;-142.75;100.00
41632;BME280;37452;51.938;4.624;2023-04-06T02:33:48;78119.78;;;-142.75;100.00
41632;BME280;37452;51.938;4.624;2023-04-06T02:36:13;78113.88;;;-142.75;100.00
41632;BME280;37452;51.938;4.624;2023-04-06T02:38:39;78106.00;;;-142.75;100.00
41632;BME280;37452;51.938;4.624;2023-04-06T02:41:04;78106.00;;;-142.75;100.00
41632;BME280;37452;51.938;4.624;2023-04-06T02:43:29;78102.06;;;-142.75;100.00
41632;BME280;37452;51.938;4.624;2023-04-06T02:45:55;78086.31;;;-142.75;100.00
41632;BME280;37452;51.938;4.624;2023-04-06T02:48:20;78106.00;;;-142.75;100.00
41632;BME280;37452;51.938;4.624;2023-04-06T02:50:45;78102.06;;;-142.75;100.00
41632;BME280;37452;51.938;4.624;2023-04-06T02:53:11;78119.78;;;-142.75;100.00
41632;BME280;37452;51.938;4.624;2023-04-06T02:55:36;78117.81;;;-142.75;100.00
41632;BME280;37452;51.938;4.624;2023-04-06T02:58:01;78113.88;;;-142.75;100.00
41632;BME280;37452;51.938;4.624;2023-04-06T03:00:26;78106.00;;;-142.75;100.00
41632;BME280;37452;51.938;4.624;2023-04-06T03:02:52;78107.97;;;-142.75;100.00
41632;BME280;37452;51.938;4.624;2023-04-06T03:05:17;78102.06;;;-142.75;100.00
41632;BME280;37452;51.938;4.624;2023-04-06T03:07:42;78092.22;;;-142.75;100.00
41632;BME280;37452;51.938;4.624;2023-04-06T03:10:08;78084.34;;;-142.75;100.00
41632;BME280;37452;51.938;4.624;2023-04-06T03:12:34;78094.19;;;-142.75;100.00
41632;BME280;37452;51.938;4.624;2023-04-06T03:15:00;78090.25;;;-142.75;100.00
41632;BME280;37452;51.938;4.624;2023-04-06T03:17:25;78082.38;;;-142.75;100.00
41632;BME280;37452;51.938;4.624;2023-04-06T03:19:50;78090.25;;;-142.75;100.00
41632;BME280;37452;51.938;4.624;2023-04-06T03:22:16;78078.44;;;-142.75;100.00
41632;BME280;37452;51.938;4.624;2023-04-06T03:24:41;78076.47;;;-142.75;100.00
41632;BME280;37452;51.938;4.624;2023-04-06T03:27:06;78070.56;;;-142.75;100.00
41632;BME280;37452;51.938;4.624;2023-04-06T03:29:32;78082.38;;;-142.75;100.00
41632;BME280;37452;51.938;4.624;2023-04-06T03:31:57;78062.69;;;-142.75;100.00
41632;BME280;37452;51.938;4.624;2023-04-06T03:34:22;78056.78;;;-142.75;100.00
41632;BME280;37452;51.938;4.624;2023-04-06T03:36:47;78062.69;;;-142.75;100.00
41632;BME280;37452;51.938;4.624;2023-04-06T03:39:13;78052.81;;;-142.75;100.00
41632;BME280;37452;51.938;4.624;2023-04-06T03:41:38;78046.91;;;-142.75;100.00
41632;BME280;37452;51.938;4.624;2023-04-06T03:44:05;78042.97;;;-142.75;100.00
41632;BME280;37452;51.938;4.624;2023-04-06T03:46:30;78054.81;;;-142.75;100.00
41632;BME280;37452;51.938;4.624;2023-04-06T03:48:56;78064.66;;;-142.75;100.00
41632;BME280;37452;51.938;4.624;2023-04-06T03:51:21;78056.78;;;-142.75;100.00
41632;BME280;37452;51.938;4.624;2023-04-06T03:53:46;78052.81;;;-142.75;100.00
41632;BME280;37452;51.938;4.624;2023-04-06T03:56:12;78058.72;;;-142.75;100.00
41632;BME280;37452;51.938;4.624;2023-04-06T03:58:37;78050.84;;;-142.75;100.00
41632;BME280;37452;51.938;4.624;2023-04-06T04:01:02;78039.03;;;-142.75;100.00
41632;BME280;37452;51.938;4.624;2023-04-06T04:03:27;78039.03;;;-142.75;100.00
41632;BME280;37452;51.938;4.624;2023-04-06T04:05:53;78042.97;;;-142.75;100.00
41632;BME280;37452;51.938;4.624;2023-04-06T04:08:20;78041.00;;;-142.75;100.00
41632;BME280;37452;51.938;4.624;2023-04-06T04:10:46;78035.09;;;-142.75;100.00
41632;BME280;37452;51.938;4.624;2023-04-06T04:13:11;78037.06;;;-142.75;100.00
41632;BME280;37452;51.938;4.624;2023-04-06T04:15:36;78037.06;;;-142.75;100.00
41632;BME280;37452;51.938;4.624;2023-04-06T04:18:01;78031.16;;;-142.75;100.00
41632;BME280;37452;51.938;4.624;2023-04-06T04:20:27;78027.22;;;-142.75;100.00
41632;BME280;37452;51.938;4.624;2023-04-06T04:22:53;78025.25;;;-142.75;100.00
41632;BME280;37452;51.938;4.624;2023-04-06T04:25:19;78023.28;;;-142.75;100.00
41632;BME280;37452;51.938;4.624;2023-04-06T04:27:44;78011.47;;;-142.75;100.00
41632;BME280;37452;51.938;4.624;2023-04-06T04:30:09;78005.56;;;-142.75;100.00
41632;BME280;37452;51.938;4.624;2023-04-06T04:32:35;77995.72;;;-142.75;100.00
41632;BME280;37452;51.938;4.624;2023-04-06T04:35:00;77987.84;;;-142.75;100.00
41632;BME280;37452;51.938;4.624;2023-04-06T04:37:26;77991.78;;;-142.75;100.00
41632;BME280;37452;51.938;4.624;2023-04-06T04:39:51;77979.97;;;-142.75;100.00
41632;BME280;37452;51.938;4.624;2023-04-06T04:42:16;77970.13;;;-142.75;100.00
41632;BME280;37452;51.938;4.624;2023-04-06T04:44:41;77960.28;;;-142.75;100.00
41632;BME280;37452;51.938;4.624;2023-04-06T04:47:07;77958.31;;;-142.75;100.00
41632;BME280;37452;51.938;4.624;2023-04-06T04:49:32;77952.41;;;-142.75;100.00
41632;BME280;37452;51.938;4.624;2023-04-06T04:51:57;77960.28;;;-142.75;100.00
41632;BME280;37452;51.938;4.624;2023-04-06T04:54:22;77964.22;;;-142.75;100.00
41632;BME280;37452;51.938;4.624;2023-04-06T04:56:48;77950.44;;;-142.75;100.00
41632;BME280;37452;51.938;4.624;2023-04-06T04:59:13;77936.66;;;-142.75;100.00
41632;BME280;37452;51.938;4.624;2023-04-06T05:01:38;77946.50;;;-142.75;100.00
41632;BME280;37452;51.938;4.624;2023-04-06T05:04:03;77942.56;;;-142.75;99.18
41632;BME280;37452;51.938;4.624;2023-04-06T05:06:29;77938.63;;;-142.75;99.67
41632;BME280;37452;51.938;4.624;2023-04-06T05:08:54;77936.66;;;-142.75;99.84
41632;BME280;37452;51.938;4.624;2023-04-06T05:11:20;77948.47;;;-142.75;99.98
41632;BME280;37452;51.938;4.624;2023-04-06T05:13:46;77938.63;;;-142.75;100.00
41632;BME280;37452;51.938;4.624;2023-04-06T05:16:11;77922.88;;;-142.75;100.00
41632;BME280;37452;51.938;4.624;2023-04-06T05:18:37;77924.84;;;-142.75;100.00
41632;BME280;37452;51.938;4.624;2023-04-06T05:21:02;77916.97;;;-142.75;100.00
41632;BME280;37452;51.938;4.624;2023-04-06T05:23:27;77913.03;;;-142.75;100.00
41632;BME280;37452;51.938;4.624;2023-04-06T05:25:53;77920.91;;;-142.75;100.00
41632;BME280;37452;51.938;4.624;2023-04-06T05:28:18;77911.06;;;-142.75;100.00
41632;BME280;37452;51.938;4.624;2023-04-06T05:30:44;77905.13;;;-142.75;100.00
41632;BME280;37452;51.938;4.624;2023-04-06T05:33:11;77911.06;;;-142.75;100.00
41632;BME280;37452;51.938;4.624;2023-04-06T05:35:36;77916.97;;;-142.75;100.00
41632;BME280;37452;51.938;4.624;2023-04-06T05:38:02;77907.09;;;-142.75;100.00
41632;BME280;37452;51.938;4.624;2023-04-06T05:40:27;77911.06;;;-142.75;100.00
41632;BME280;37452;51.938;4.624;2023-04-06T05:42:52;77909.06;;;-142.75;100.00
41632;BME280;37452;51.938;4.624;2023-04-06T05:45:18;77899.22;;;-142.75;100.00
41632;BME280;37452;51.938;4.624;2023-04-06T05:47:45;77913.03;;;-142.75;100.00
41632;BME280;37452;51.938;4.624;2023-04-06T05:50:11;77903.16;;;-142.75;100.00
41632;BME280;37452;51.938;4.624;2023-04-06T05:52:37;77907.09;;;-142.75;100.00
41632;BME280;37452;51.938;4.624;2023-04-06T05:55:03;77903.16;;;-142.75;100.00
41632;BME280;37452;51.938;4.624;2023-04-06T05:57:28;77899.22;;;-142.75;100.00
41632;BME280;37452;51.938;4.624;2023-04-06T05:59:54;77903.16;;;-142.75;100.00
41632;BME280;37452;51.938;4.624;2023-04-06T06:02:20;77901.19;;;-142.75;100.00
41632;BME280;37452;51.938;4.624;2023-04-06T06:04:45;77881.50;;;-142.75;100.00
41632;BME280;37452;51.938;4.624;2023-04-06T06:07:11;77885.44;;;-142.75;100.00
41632;BME280;37452;51.938;4.624;2023-04-06T06:09:36;77889.38;;;-142.75;100.00
41632;BME280;37452;51.938;4.624;2023-04-06T06:12:02;77873.63;;;-142.75;100.00
41632;BME280;37452;51.938;4.624;2023-04-06T06:14:27;77873.63;;;-142.75;100.00
41632;BME280;37452;51.938;4.624;2023-04-06T06:16:55;77877.56;;;-142.75;100.00
41632;BME280;37452;51.938;4.624;2023-04-06T06:19:20;77873.63;;;-142.75;100.00
41632;BME280;37452;51.938;4.624;2023-04-06T06:21:45;77857.88;;;-142.75;100.00
41632;BME280;37452;51.938;4.624;2023-04-06T06:24:11;77863.78;;;-142.75;100.00
41632;BME280;37452;51.938;4.624;2023-04-06T06:26:36;77857.88;;;-142.75;100.00
41632;BME280;37452;51.938;4.624;2023-04-06T06:29:03;77853.94;;;-142.75;100.00
41632;BME280;37452;51.938;4.624;2023-04-06T06:31:30;77842.13;;;-142.75;100.00
41632;BME280;37452;51.938;4.624;2023-04-06T06:33:55;77826.38;;;-142.75;100.00
41632;BME280;37452;51.938;4.624;2023-04-06T06:36:21;77832.28;;;-142.75;100.00
41632;BME280;37452;51.938;4.624;2023-04-06T06:38:46;77828.34;;;-142.75;100.00
41632;BME280;37452;51.938;4.624;2023-04-06T06:41:11;77818.50;;;-142.75;100.00
41632;BME280;37452;51.938;4.624;2023-04-06T06:43:36;77812.59;;;-142.75;100.00
41632;BME280;37452;51.938;4.624;2023-04-06T06:46:03;77816.53;;;-142.75;100.00
41632;BME280;37452;51.938;4.624;2023-04-06T06:48:28;77820.47;;;-142.75;100.00
41632;BME280;37452;51.938;4.624;2023-04-06T06:50:54;77806.69;;;-142.75;100.00
41632;BME280;37452;51.938;4.624;2023-04-06T06:53:19;77812.59;;;-142.75;100.00
41632;BME280;37452;51.938;4.624;2023-04-06T06:55:45;77806.69;;;-142.75;100.00
41632;BME280;37452;51.938;4.624;2023-04-06T06:58:10;77826.38;;;-142.75;100.00
41632;BME280;37452;51.938;4.624;2023-04-06T07:00:36;77806.69;;;-142.75;100.00
41632;BME280;37452;51.938;4.624;2023-04-06T07:03:01;77800.78;;;-142.75;100.00
41632;BME280;37452;51.938;4.624;2023-04-06T07:05:26;77785.03;;;-142.75;100.00
41632;BME280;37452;51.938;4.624;2023-04-06T07:07:52;77785.03;;;-142.75;100.00
41632;BME280;37452;51.938;4.624;2023-04-06T07:10:17;77781.09;;;-142.75;100.00
41632;BME280;37452;51.938;4.624;2023-04-06T07:12:42;77779.13;;;-142.75;100.00
41632;BME280;37452;51.938;4.624;2023-04-06T07:15:08;77773.22;;;-142.75;100.00
41632;BME280;37452;51.938;4.624;2023-04-06T07:17:33;77751.56;;;-142.75;100.00
41632;BME280;37452;51.938;4.624;2023-04-06T07:19:59;77761.41;;;-142.75;100.00
41632;BME280;37452;51.938;4.624;2023-04-06T07:22:24;77757.47;;;-142.75;100.00
41632;BME280;37452;51.938;4.624;2023-04-06T07:24:49;77761.41;;;-142.75;100.00
41632;BME280;37452;51.938;4.624;2023-04-06T07:27:15;77749.59;;;-142.75;100.00
41632;BME280;37452;51.938;4.624;2023-04-06T07:29:41;77747.63;;;-142.75;100.00
41632;BME280;37452;51.938;4.624;2023-04-06T07:32:07;77735.81;;;-142.75;100.00
41632;BME280;37452;51.938;4.624;2023-04-06T07:34:32;77723.97;;;-142.75;100.00
41632;BME280;37452;51.938;4.624;2023-04-06T07:36:57;77708.22;;;-142.75;100.00
41632;BME280;37452;51.938;4.624;2023-04-06T07:39:23;77716.09;;;-142.75;100.00
41632;BME280;37452;51.938;4.624;2023-04-06T07:41:48;77720.03;;;-142.75;100.00
41632;BME280;37452;51.938;4.624;2023-04-06T07:44:14;77739.75;;;-142.75;100.00
41632;BME280;37452;51.938;4.624;2023-04-06T07:46:39;77720.03;;;-142.75;100.00
41632;BME280;37452;51.938;4.624;2023-04-06T07:49:05;77733.84;;;-142.75;100.00
41632;BME280;37452;51.938;4.624;2023-04-06T07:51:30;77725.97;;;-142.75;100.00
41632;BME280;37452;51.938;4.624;2023-04-06T07:53:56;77725.97;;;-142.75;100.00
41632;BME280;37452;51.938;4.624;2023-04-06T07:56:21;77723.97;;;-142.75;100.00
41632;BME280;37452;51.938;4.624;2023-04-06T07:58:47;77714.13;;;-142.75;100.00
41632;BME280;37452;51.938;4.624;2023-04-06T08:01:12;77714.13;;;-142.75;100.00
41632;BME280;37452;51.938;4.624;2023-04-06T08:03:38;77698.38;;;-142.75;100.00
41632;BME280;37452;51.938;4.624;2023-04-06T08:06:03;77696.41;;;-142.75;100.00
41632;BME280;37452;51.938;4.624;2023-04-06T08:08:28;77686.56;;;-142.75;100.00
41632;BME280;37452;51.938;4.624;2023-04-06T08:10:54;77684.59;;;-142.75;100.00
41632;BME280;37452;51.938;4.624;2023-04-06T08:13:19;77696.41;;;-142.75;100.00
41632;BME280;37452;51.938;4.624;2023-04-06T08:15:45;77684.59;;;-142.75;100.00
41632;BME280;37452;51.938;4.624;2023-04-06T08:18:10;77696.41;;;-142.75;100.00
41632;BME280;37452;51.938;4.624;2023-04-06T08:20:36;77696.41;;;-142.75;100.00
41632;BME280;37452;51.938;4.624;2023-04-06T08:23:01;77684.59;;;-142.75;100.00
41632;BME280;37452;51.938;4.624;2023-04-06T08:25:26;77688.53;;;-142.75;100.00
41632;BME280;37452;51.938;4.624;2023-04-06T08:27:52;77684.59;;;-142.75;100.00
41632;BME280;37452;51.938;4.624;2023-04-06T08:30:17;77696.41;;;-142.75;100.00
41632;BME280;37452;51.938;4.624;2023-04-06T08:32:47;77688.53;;;-142.75;100.00
41632;BME280;37452;51.938;4.624;2023-04-06T08:35:12;77674.75;;;-142.75;100.00
41632;BME280;37452;51.938;4.624;2023-04-06T08:37:38;77692.47;;;-142.75;100.00
41632;BME280;37452;51.938;4.624;2023-04-06T08:40:04;77684.59;;;-142.75;100.00
41632;BME280;37452;51.938;4.624;2023-04-06T08:42:32;77688.53;;;-142.75;100.00
41632;BME280;37452;51.938;4.624;2023-04-06T08:44:58;77692.47;;;-142.75;100.00
41632;BME280;37452;51.938;4.624;2023-04-06T08:47:24;77688.53;;;-142.75;100.00
41632;BME280;37452;51.938;4.624;2023-04-06T08:49:50;77676.72;;;-142.75;100.00
41632;BME280;37452;51.938;4.624;2023-04-06T08:52:18;77655.06;;;-142.75;100.00
41632;BME280;37452;51.938;4.624;2023-04-06T08:54:44;77678.69;;;-142.75;100.00
41632;BME280;37452;51.938;4.624;2023-04-06T08:57:09;77670.81;;;-142.75;100.00
41632;BME280;37452;51.938;4.624;2023-04-06T08:59:35;77668.84;;;-142.75;100.00
41632;BME280;37452;51.938;4.624;2023-04-06T09:02:04;77649.16;;;-142.75;100.00
41632;BME280;37452;51.938;4.624;2023-04-06T09:04:32;77672.78;;;-142.75;100.00
41632;BME280;37452;51.938;4.624;2023-04-06T09:06:58;77649.16;;;-142.75;100.00
41632;BME280;37452;51.938;4.624;2023-04-06T09:09:24;77680.66;;;-142.75;100.00
41632;BME280;37452;51.938;4.624;2023-04-06T09:11:51;77659.00;;;-142.75;100.00
41632;BME280;37452;51.938;4.624;2023-04-06T09:14:17;77668.84;;;-142.75;100.00
41632;BME280;37452;51.938;4.624;2023-04-06T09:16:44;77694.44;;;-142.75;100.00
41632;BME280;37452;51.938;4.624;2023-04-06T09:19:11;77678.69;;;-142.75;100.00
41632;BME280;37452;51.938;4.624;2023-04-06T09:21:37;77688.53;;;-142.75;100.00
41632;BME280;37452;51.938;4.624;2023-04-06T09:24:03;77668.84;;;-142.75;100.00
41632;BME280;37452;51.938;4.624;2023-04-06T09:26:29;77664.91;;;-142.75;100.00
41632;BME280;37452;51.938;4.624;2023-04-06T09:28:57;77688.53;;;-142.75;100.00
41632;BME280;37452;51.938;4.624;2023-04-06T09:31:25;77659.00;;;-142.75;100.00
41632;BME280;37452;51.938;4.624;2023-04-06T09:33:51;77655.06;;;-142.75;100.00
41632;BME280;37452;51.938;4.624;2023-04-06T09:36:17;77672.78;;;-142.75;100.00
41632;BME280;37452;51.938;4.624;2023-04-06T09:38:59;77649.16;;;-142.75;100.00
41632;BME280;37452;51.938;4.624;2023-04-06T09:41:32;77649.16;;;-142.75;100.00
41632;BME280;37452;51.938;4.624;2023-04-06T09:44:07;77668.84;;;-142.75;100.00
41632;BME280;37452;51.938;4.624;2023-04-06T09:46:36;77653.09;;;-142.75;100.00
41632;BME280;37452;51.938;4.624;2023-04-06T09:49:06;77647.19;;;-142.75;100.00
41632;BME280;37452;51.938;4.624;2023-04-06T09:51:36;77637.34;;;-142.75;100.00
41632;BME280;37452;51.938;4.624;2023-04-06T09:54:02;77619.63;;;-142.75;100.00
41632;BME280;37452;51.938;4.624;2023-04-06T09:56:33;77619.63;;;-142.75;100.00
41632;BME280;37452;51.938;4.624;2023-04-06T09:59:11;77660.97;;;-142.75;100.00
41632;BME280;37452;51.938;4.624;2023-04-06T10:01:39;77627.50;;;-142.75;100.00
41632;BME280;37452;51.938;4.624;2023-04-06T10:04:28;77645.22;;;-142.75;100.00
41632;BME280;37452;51.938;4.624;2023-04-06T10:06:57;77649.16;;;-142.75;100.00
41632;BME280;37452;51.938;4.624;2023-04-06T10:09:25;77668.84;;;-142.75;100.00
41632;BME280;37452;51.938;4.624;2023-04-06T10:11:53;77674.75;;;-142.75;100.00
41632;BME280;37452;51.938;4.624;2023-04-06T10:14:19;77657.03;;;-142.75;100.00
41632;BME280;37452;51.938;4.624;2023-04-06T10:16:48;77645.22;;;-142.75;100.00
41632;BME280;37452;51.938;4.624;2023-04-06T10:19:17;77629.47;;;-142.75;100.00
41632;BME280;37452;51.938;4.624;2023-04-06T10:21:45;77621.59;;;-142.75;100.00
41632;BME280;37452;51.938;4.624;2023-04-06T10:24:13;77627.50;;;-142.75;100.00
41632;BME280;37452;51.938;4.624;2023-04-06T10:26:39;77629.47;;;-142.75;100.00
41632;BME280;37452;51.938;4.624;2023-04-06T10:29:05;77605.84;;;-142.75;100.00
41632;BME280;37452;51.938;4.624;2023-04-06T10:31:30;77601.91;;;-142.75;100.00
41632;BME280;37452;51.938;4.624;2023-04-06T10:34:01;77588.13;;;-142.75;100.00
41632;BME280;37452;51.938;4.624;2023-04-06T10:36:28;77574.34;;;-142.75;100.00
41632;BME280;37452;51.938;4.624;2023-04-06T10:38:57;77578.28;;;-142.75;100.00
41632;BME280;37452;51.938;4.624;2023-04-06T10:41:23;77574.34;;;-142.75;100.00
41632;BME280;37452;51.938;4.624;2023-04-06T10:43:57;77578.28;;;-142.75;100.00
41632;BME280;37452;51.938;4.624;2023-04-06T10:46:27;77597.97;;;-142.75;100.00
41632;BME280;37452;51.938;4.624;2023-04-06T10:48:52;77582.22;;;-142.75;100.00
41632;BME280;37452;51.938;4.624;2023-04-06T10:51:18;77582.22;;;-142.75;100.00
41632;BME280;37452;51.938;4.624;2023-04-06T10:53:46;77568.44;;;-142.75;100.00
41632;BME280;37452;51.938;4.624;2023-04-06T10:56:15;77570.41;;;-142.75;100.00
41632;BME280;37452;51.938;4.624;2023-04-06T10:58:48;77562.53;;;-142.75;100.00
41632;BME280;37452;51.938;4.624;2023-04-06T11:01:18;77558.59;;;-142.75;100.00
41632;BME280;37452;51.938;4.624;2023-04-06T11:03:52;77548.75;;;-142.75;100.00
41632;BME280;37452;51.938;4.624;2023-04-06T11:06:22;77521.19;;;-142.75;100.00
41632;BME280;37452;51.938;4.624;2023-04-06T11:08:48;77536.94;;;-142.75;100.00
41632;BME280;37452;51.938;4.624;2023-04-06T11:11:15;77517.25;;;-142.75;100.00
41632;BME280;37452;51.938;4.624;2023-04-06T11:16:17;77497.56;;;-142.75;100.00
41632;BME280;37452;51.938;4.624;2023-04-06T11:24:10;77491.66;;;-142.75;100.00
41632;BME280;37452;51.938;4.624;2023-04-06T11:26:58;77487.72;;;-142.75;100.00
41632;BME280;37452;51.938;4.624;2023-04-06T11:29:27;77485.75;;;-142.75;100.00
41632;BME280;37452;51.938;4.624;2023-04-06T11:32:01;77452.25;;;-142.75;100.00
41632;BME280;37452;51.938;4.624;2023-04-06T11:34:29;77477.88;;;-142.75;100.00
41632;BME280;37452;51.938;4.624;2023-04-06T11:37:10;77477.88;;;-142.75;100.00
41632;BME280;37452;51.938;4.624;2023-04-06T11:39:43;77479.84;;;-142.75;100.00
41632;BME280;37452;51.938;4.624;2023-04-06T11:42:11;77473.94;;;-142.75;100.00
41632;BME280;37452;51.938;4.624;2023-04-06T11:44:37;77442.41;;;-142.75;100.00
41632;BME280;37452;51.938;4.624;2023-04-06T11:47:04;77452.25;;;-142.75;100.00
41632;BME280;37452;51.938;4.624;2023-04-06T11:49:31;77460.13;;;-142.75;100.00
41632;BME280;37452;51.938;4.624;2023-04-06T11:51:57;77460.13;;;-142.75;100.00
41632;BME280;37452;51.938;4.624;2023-04-06T11:54:33;77436.50;;;-142.75;100.00
41632;BME280;37452;51.938;4.624;2023-04-06T11:56:59;77432.56;;;-142.75;100.00
41632;BME280;37452;51.938;4.624;2023-04-06T11:59:25;77456.22;;;-142.75;100.00
41632;BME280;37452;51.938;4.624;2023-04-06T12:01:52;77456.22;;;-142.75;100.00
41632;BME280;37452;51.938;4.624;2023-04-06T12:04:18;77444.38;;;-142.75;100.00
41632;BME280;37452;51.938;4.624;2023-04-06T12:06:43;77440.44;;;-142.75;100.00
41632;BME280;37452;51.938;4.624;2023-04-06T12:09:09;77440.44;;;-142.75;100.00
41632;BME280;37452;51.938;4.624;2023-04-06T12:11:34;77448.34;;;-142.75;100.00
41632;BME280;37452;51.938;4.624;2023-04-06T12:14:00;77438.47;;;-142.75;100.00
41632;BME280;37452;51.938;4.624;2023-04-06T12:16:26;77450.28;;;-142.75;100.00
41632;BME280;37452;51.938;4.624;2023-04-06T12:18:52;77454.25;;;-142.75;100.00
41632;BME280;37452;51.938;4.624;2023-04-06T12:21:17;77440.44;;;-142.75;100.00
41632;BME280;37452;51.938;4.624;2023-04-06T12:23:42;77424.69;;;-142.75;100.00
41632;BME280;37452;51.938;4.624;2023-04-06T12:26:08;77434.53;;;-142.75;100.00
41632;BME280;37452;51.938;4.624;2023-04-06T12:28:33;77416.81;;;-142.75;100.00
41632;BME280;37452;51.938;4.624;2023-04-06T12:30:58;77432.56;;;-142.75;100.00
41632;BME280;37452;51.938;4.624;2023-04-06T12:33:23;77432.56;;;-142.75;100.00